Time,TemperatureF,DewpointF,PressureIn,WindDirection,WindDirectionDegrees,WindSpeedMPH,WindSpeedGustMPH,Humidity,HourlyPrecipIn,Conditions,Clouds,dailyrainin,SoftwareType,DateUTC
2017-11-18 00:03:00,42.4,19.2,29.75,SSE,154,4.0,5.8,39,0.00,,---,0.00,VWS V15.00,2017-11-18 05:03:00,
2017-11-18 00:08:00,42.6,19.4,29.75,SE,146,4.0,4.0,39,0.00,,---,0.00,VWS V15.00,2017-11-18 05:08:00,
2017-11-18 00:18:00,43.2,19.9,29.75,South,176,3.6,6.3,39,0.00,,---,0.00,VWS V15.00,2017-11-18 05:18:00,
2017-11-18 00:23:00,43.3,20.1,29.75,South,185,5.4,5.4,39,0.00,,---,0.00,VWS V15.00,2017-11-18 05:23:00,
2017-11-18 00:28:00,43.5,20.2,29.75,South,181,5.4,5.4,39,0.00,,---,0.00,VWS V15.00,2017-11-18 05:28:00,
2017-11-18 00:33:00,43.7,20.4,29.75,SSE,163,4.9,5.4,39,0.00,,---,0.00,VWS V15.00,2017-11-18 05:33:00,
2017-11-18 00:38:00,43.7,20.4,29.75,SSW,200,3.6,5.4,39,0.00,,---,0.00,VWS V15.00,2017-11-18 05:38:00,
2017-11-18 00:43:00,43.2,19.9,29.75,SSW,211,4.0,4.0,39,0.00,,---,0.00,VWS V15.00,2017-11-18 05:43:00,
2017-11-18 00:48:00,42.4,19.2,29.75,South,179,3.6,3.6,39,0.00,,---,0.00,VWS V15.00,2017-11-18 05:48:00,
2017-11-18 00:53:00,42.1,18.9,29.75,SSE,157,6.3,6.3,39,0.00,,---,0.00,VWS V15.00,2017-11-18 05:53:00,
2017-11-18 00:58:00,41.7,18.6,29.75,SSE,159,3.1,3.6,39,0.00,,---,0.00,VWS V15.00,2017-11-18 05:58:00,
2017-11-18 01:03:00,41.7,19.2,29.75,South,190,5.8,5.8,40,0.00,,---,0.00,VWS V15.00,2017-11-18 06:03:00,
2017-11-18 01:08:00,41.7,19.2,29.72,ESE,121,4.0,4.0,40,0.00,,---,0.00,VWS V15.00,2017-11-18 06:08:00,
2017-11-18 01:13:00,41.7,19.2,29.72,South,173,3.1,3.1,40,0.00,,---,0.00,VWS V15.00,2017-11-18 06:13:00,
2017-11-18 01:18:00,41.5,19.0,29.72,SE,135,5.4,5.4,40,0.00,,---,0.00,VWS V15.00,2017-11-18 06:18:00,
2017-11-18 01:23:00,41.5,19.0,29.72,East,95,3.6,3.6,40,0.00,,---,0.00,VWS V15.00,2017-11-18 06:23:00,
2017-11-18 01:28:00,41.7,19.8,29.72,ESE,120,5.8,5.8,41,0.00,,---,0.00,VWS V15.00,2017-11-18 06:28:00,
2017-11-18 01:33:00,41.7,19.8,29.72,South,185,2.7,2.7,41,0.00,,---,0.00,VWS V15.00,2017-11-18 06:33:00,
2017-11-18 01:38:00,41.9,19.9,29.72,South,189,3.1,3.1,41,0.00,,---,0.00,VWS V15.00,2017-11-18 06:38:00,
2017-11-18 01:48:00,41.7,19.8,29.72,SSW,212,4.9,4.9,41,0.04,,---,0.04,VWS V15.00,2017-11-18 06:48:00,
2017-11-18 01:53:00,41.5,19.6,29.72,SSW,213,2.7,3.6,41,0.04,,---,0.04,VWS V15.00,2017-11-18 06:53:00,
2017-11-18 01:58:00,41.5,20.2,29.72,SE,144,3.1,3.1,42,0.04,,---,0.04,VWS V15.00,2017-11-18 06:58:00,
2017-11-18 02:03:00,41.4,20.0,29.72,SE,144,3.1,3.1,42,0.04,,---,0.04,VWS V15.00,2017-11-18 07:03:00,
2017-11-18 02:08:00,41.0,19.7,29.69,SE,140,4.5,4.5,42,0.04,,---,0.04,VWS V15.00,2017-11-18 07:08:00,
2017-11-18 02:13:00,41.0,19.7,29.69,SE,134,5.8,5.8,42,0.04,,---,0.04,VWS V15.00,2017-11-18 07:13:00,
2017-11-18 02:18:00,41.0,20.2,29.69,SSE,151,3.6,5.8,43,0.04,,---,0.04,VWS V15.00,2017-11-18 07:18:00,
2017-11-18 02:23:00,41.0,20.2,29.69,SE,140,4.0,4.0,43,0.04,,---,0.04,VWS V15.00,2017-11-18 07:23:00,
2017-11-18 02:28:00,41.0,20.2,29.69,ESE,117,3.6,3.6,43,0.04,,---,0.04,VWS V15.00,2017-11-18 07:28:00,
2017-11-18 02:33:00,41.0,20.8,29.69,SE,137,5.8,5.8,44,0.04,,---,0.04,VWS V15.00,2017-11-18 07:33:00,
2017-11-18 02:38:00,41.2,20.9,29.69,ESE,117,2.7,2.7,44,0.04,,---,0.04,VWS V15.00,2017-11-18 07:38:00,
2017-11-18 02:43:00,41.2,20.9,29.69,SSE,158,4.0,4.0,44,0.04,,---,0.04,VWS V15.00,2017-11-18 07:43:00,
2017-11-18 02:48:00,41.2,21.5,29.69,SE,142,5.8,5.8,45,0.00,,---,0.04,VWS V15.00,2017-11-18 07:48:00,
2017-11-18 02:53:00,41.5,21.8,29.66,ESE,118,4.0,4.0,45,0.00,,---,0.04,VWS V15.00,2017-11-18 07:53:00,
2017-11-18 02:58:00,41.5,22.3,29.66,South,184,2.7,4.0,46,0.00,,---,0.04,VWS V15.00,2017-11-18 07:58:00,
2017-11-18 03:03:00,41.7,22.5,29.66,SSE,161,2.7,4.0,46,0.00,,---,0.04,VWS V15.00,2017-11-18 08:03:00,
2017-11-18 03:08:00,41.9,22.6,29.66,South,185,4.0,4.0,46,0.00,,---,0.04,VWS V15.00,2017-11-18 08:08:00,
2017-11-18 03:13:00,42.1,23.3,29.66,SE,129,3.1,3.1,47,0.00,,---,0.04,VWS V15.00,2017-11-18 08:13:00,
2017-11-18 03:18:00,42.1,23.3,29.66,South,169,4.0,4.0,47,0.00,,---,0.04,VWS V15.00,2017-11-18 08:18:00,
2017-11-18 03:23:00,42.1,23.3,29.66,SE,136,2.7,4.0,47,0.00,,---,0.04,VWS V15.00,2017-11-18 08:23:00,
2017-11-18 03:28:00,42.3,24.0,29.66,South,178,3.1,3.1,48,0.00,,---,0.04,VWS V15.00,2017-11-18 08:28:00,
2017-11-18 03:33:00,42.4,24.1,29.66,SSW,201,2.7,2.7,48,0.00,,---,0.04,VWS V15.00,2017-11-18 08:33:00,
2017-11-18 03:38:00,42.4,24.1,29.66,SE,128,2.7,2.7,48,0.00,,---,0.04,VWS V15.00,2017-11-18 08:38:00,
2017-11-18 03:43:00,42.6,24.3,29.66,ESE,123,3.1,3.1,48,0.00,,---,0.04,VWS V15.00,2017-11-18 08:43:00,
2017-11-18 03:48:00,42.8,24.5,29.66,ESE,122,3.1,5.4,48,0.00,,---,0.04,VWS V15.00,2017-11-18 08:48:00,
2017-11-18 03:53:00,43.0,24.6,29.63,SE,125,2.7,3.1,48,0.00,,---,0.04,VWS V15.00,2017-11-18 08:53:00,
2017-11-18 03:58:00,43.2,24.8,29.63,SE,145,2.7,2.7,48,0.00,,---,0.04,VWS V15.00,2017-11-18 08:58:00,
2017-11-18 04:03:00,43.3,25.5,29.63,SE,135,3.6,3.6,49,0.00,,---,0.04,VWS V15.00,2017-11-18 09:03:00,
2017-11-18 04:08:00,43.5,25.6,29.63,SE,135,2.7,2.7,49,0.00,,---,0.04,VWS V15.00,2017-11-18 09:08:00,
2017-11-18 04:13:00,43.7,25.8,29.63,SE,134,3.6,3.6,49,0.00,,---,0.04,VWS V15.00,2017-11-18 09:13:00,
2017-11-18 04:18:00,44.2,26.3,29.63,SSE,152,2.7,3.1,49,0.00,,---,0.04,VWS V15.00,2017-11-18 09:18:00,
2017-11-18 04:23:00,45.0,27.0,29.63,SSW,207,3.1,5.4,49,0.00,,---,0.04,VWS V15.00,2017-11-18 09:23:00,
2017-11-18 04:28:00,45.5,28.0,29.63,South,179,2.7,3.6,50,0.00,,---,0.04,VWS V15.00,2017-11-18 09:28:00,
2017-11-18 04:33:00,46.0,28.5,29.63,South,172,3.1,4.0,50,0.00,,---,0.04,VWS V15.00,2017-11-18 09:33:00,
2017-11-18 04:38:00,46.4,28.8,29.63,SSW,200,3.1,3.1,50,0.00,,---,0.04,VWS V15.00,2017-11-18 09:38:00,
2017-11-18 04:43:00,46.6,29.0,29.63,SW,221,4.9,8.7,50,0.00,,---,0.04,VWS V15.00,2017-11-18 09:43:00,
2017-11-18 04:48:00,46.9,29.3,29.63,South,191,2.7,3.1,50,0.00,,---,0.04,VWS V15.00,2017-11-18 09:48:00,
2017-11-18 04:53:00,47.1,29.5,29.63,SSE,167,3.1,3.1,50,0.00,,---,0.04,VWS V15.00,2017-11-18 09:53:00,
2017-11-18 04:54:00,47.1,29.5,29.63,SSW,207,2.7,3.1,50,0.00,,---,0.04,VWS V15.00,2017-11-18 09:54:00,
2017-11-18 04:59:00,47.3,29.6,29.63,South,179,4.0,4.0,50,0.00,,---,0.04,VWS V15.00,2017-11-18 09:59:00,
2017-11-18 05:04:00,47.5,29.8,29.63,South,181,2.7,4.0,50,0.00,,---,0.04,VWS V15.00,2017-11-18 10:04:00,
2017-11-18 05:09:00,47.7,30.0,29.60,South,183,2.2,2.2,50,0.00,,---,0.04,VWS V15.00,2017-11-18 10:09:00,
2017-11-18 05:14:00,47.8,30.1,29.60,South,190,3.6,4.0,50,0.00,,---,0.04,VWS V15.00,2017-11-18 10:14:00,
2017-11-18 05:19:00,48.2,30.5,29.60,SSW,212,3.1,4.9,50,0.00,,---,0.04,VWS V15.00,2017-11-18 10:19:00,
2017-11-18 05:24:00,48.4,30.6,29.60,SSW,206,5.4,5.4,50,0.00,,---,0.04,VWS V15.00,2017-11-18 10:24:00,
2017-11-18 05:29:00,48.6,30.8,29.60,SSW,196,2.7,2.7,50,0.00,,---,0.04,VWS V15.00,2017-11-18 10:29:00,
2017-11-18 05:34:00,48.7,31.0,29.60,SW,224,5.4,5.4,50,0.00,,---,0.04,VWS V15.00,2017-11-18 10:34:00,
2017-11-18 05:39:00,49.1,31.3,29.60,South,187,4.0,4.0,50,0.00,,---,0.04,VWS V15.00,2017-11-18 10:39:00,
2017-11-18 05:44:00,49.1,31.3,29.60,South,186,2.7,3.6,50,0.00,,---,0.04,VWS V15.00,2017-11-18 10:44:00,
2017-11-18 05:49:00,49.3,31.5,29.60,SSW,207,6.3,8.3,50,0.00,,---,0.04,VWS V15.00,2017-11-18 10:49:00,
2017-11-18 05:54:00,49.6,31.8,29.60,South,185,3.6,5.4,50,0.00,,---,0.04,VWS V15.00,2017-11-18 10:54:00,
2017-11-18 05:59:00,49.6,31.8,29.60,South,176,3.6,4.0,50,0.00,,---,0.04,VWS V15.00,2017-11-18 10:59:00,
2017-11-18 06:04:00,49.8,31.9,29.60,SW,223,5.8,5.8,50,0.00,,---,0.04,VWS V15.00,2017-11-18 11:04:00,
2017-11-18 06:09:00,49.8,31.9,29.60,SW,215,5.4,5.8,50,0.00,,---,0.04,VWS V15.00,2017-11-18 11:09:00,
2017-11-18 06:14:00,49.8,31.9,29.60,SSW,208,4.0,4.0,50,0.00,,---,0.04,VWS V15.00,2017-11-18 11:14:00,
2017-11-18 06:19:00,49.6,31.8,29.60,SSW,209,7.6,7.6,50,0.00,,---,0.04,VWS V15.00,2017-11-18 11:19:00,
2017-11-18 06:24:00,49.5,31.6,29.60,SSW,212,5.8,7.2,50,0.00,,---,0.04,VWS V15.00,2017-11-18 11:24:00,
2017-11-18 06:29:00,49.3,31.5,29.60,SSW,212,2.7,2.7,50,0.04,,---,0.08,VWS V15.00,2017-11-18 11:29:00,
2017-11-18 06:34:00,49.1,31.3,29.60,SW,216,4.0,4.0,50,0.04,,---,0.08,VWS V15.00,2017-11-18 11:34:00,
2017-11-18 06:39:00,49.1,31.3,29.60,SSW,201,3.6,3.6,50,0.04,,---,0.08,VWS V15.00,2017-11-18 11:39:00,
2017-11-18 06:44:00,48.9,31.1,29.60,South,186,3.1,4.0,50,0.08,,---,0.12,VWS V15.00,2017-11-18 11:44:00,
2017-11-18 06:49:00,48.7,31.0,29.60,South,185,3.1,3.6,50,0.08,,---,0.12,VWS V15.00,2017-11-18 11:49:00,
2017-11-18 06:54:00,48.7,31.0,29.60,SSW,202,3.6,3.6,50,0.08,,---,0.12,VWS V15.00,2017-11-18 11:54:00,
2017-11-18 06:59:00,48.6,30.8,29.60,SSW,197,3.1,4.9,50,0.08,,---,0.12,VWS V15.00,2017-11-18 11:59:00,
2017-11-18 07:03:00,48.6,30.8,29.60,South,175,4.9,4.9,50,0.08,,---,0.12,VWS V15.00,2017-11-18 12:03:00,
2017-11-18 07:08:00,48.6,31.3,29.57,South,184,3.1,3.1,51,0.08,,---,0.12,VWS V15.00,2017-11-18 12:08:00,
2017-11-18 07:13:00,48.4,31.1,29.57,SSW,204,3.6,5.4,51,0.08,,---,0.12,VWS V15.00,2017-11-18 12:13:00,